createdAt,value
2023-02-17T00:02:52.791Z,8.5
2023-02-17T00:13:01.320Z,8.1
2023-02-17T00:23:09.723Z,8.4
2023-02-17T00:33:18.281Z,8.7
2023-02-17T00:43:26.754Z,7.8
2023-02-17T00:53:35.250Z,8
2023-02-17T01:03:43.777Z,8
2023-02-17T01:13:52.294Z,7.9
2023-02-17T01:23:53.236Z,7.9
2023-02-17T01:34:01.852Z,8
2023-02-17T01:44:19.610Z,7.9
2023-02-17T01:54:56.727Z,8
2023-02-17T02:04:13.200Z,7.9
2023-02-17T02:14:21.268Z,7.9
2023-02-17T02:24:31.318Z,8.2
2023-02-17T02:34:32.804Z,8.5
2023-02-17T02:44:33.280Z,8
2023-02-17T02:54:35.959Z,7.5
2023-02-17T03:04:36.268Z,7.7
2023-02-17T03:14:44.670Z,7.5
2023-02-17T03:24:52.778Z,7.5
2023-02-17T03:35:00.782Z,7.7
2023-02-17T03:45:01.770Z,7.7
2023-02-17T03:55:11.130Z,7.4
2023-02-17T04:05:21.373Z,7.3
2023-02-17T04:25:29.262Z,7
2023-02-17T04:35:37.689Z,6.8
2023-02-17T04:45:46.039Z,6.6
2023-02-17T04:55:55.304Z,6.4
2023-02-17T05:06:04.028Z,6.4
2023-02-17T05:16:12.010Z,6.3
2023-02-17T05:26:20.169Z,6.5
2023-02-17T05:36:28.295Z,6.4
2023-02-17T05:46:36.477Z,6.3
2023-02-17T05:56:44.800Z,6.4
2023-02-17T06:06:53.096Z,6.4
2023-02-17T06:17:01.685Z,6.5
2023-02-17T06:27:11.311Z,6.5
2023-02-17T06:37:20.649Z,6.3
2023-02-17T06:47:28.846Z,6.3
2023-02-17T06:57:38.151Z,6.2
2023-02-17T07:07:39.176Z,6.3
2023-02-17T07:17:47.498Z,6.2
2023-02-17T07:27:56.918Z,6.3
2023-02-17T07:37:56.005Z,6.5
2023-02-17T07:48:07.017Z,6.6
2023-02-17T07:58:09.375Z,7
2023-02-17T08:08:11.255Z,7.1
2023-02-17T08:18:19.470Z,8.4
2023-02-17T08:28:27.958Z,9.2
2023-02-17T08:38:36.166Z,10.1
2023-02-17T08:48:44.438Z,10.6
2023-02-17T08:58:53.055Z,11.1
2023-02-17T09:09:03.259Z,12.1
2023-02-17T09:19:11.705Z,12.4
2023-02-17T09:29:22.846Z,12.7
2023-02-17T09:39:21.710Z,13.1
2023-02-17T09:49:29.914Z,13.2
2023-02-17T09:59:38.194Z,13.7
2023-02-17T10:09:46.317Z,14.2
2023-02-17T10:19:54.892Z,15.1
2023-02-17T10:30:04.632Z,15.4
2023-02-17T10:40:13.021Z,16.1
2023-02-17T10:50:21.506Z,16.4
2023-02-17T11:00:29.783Z,16.9
2023-02-17T11:10:29.840Z,17.4
2023-02-17T11:20:38.291Z,17.7
2023-02-17T11:30:47.618Z,17.9
2023-02-17T11:40:56.678Z,18.3
2023-02-17T11:51:05.845Z,18.8
2023-02-17T12:01:14.150Z,19.1
2023-02-17T12:11:23.666Z,19.2
2023-02-17T12:21:34.630Z,19.1
2023-02-17T12:31:43.055Z,19.5
2023-02-17T12:41:51.453Z,19.9
2023-02-17T12:51:59.935Z,19.3
2023-02-17T13:02:08.412Z,18.7
2023-02-17T13:12:16.594Z,18.8
2023-02-17T13:22:24.841Z,18.4
2023-02-17T13:32:33.286Z,18.2
2023-02-17T13:42:41.367Z,17.6
2023-02-17T13:52:50.929Z,17.8
2023-02-17T14:03:02.180Z,18.1
2023-02-17T14:13:00.494Z,17.8
2023-02-17T14:23:04.082Z,18.3
2023-02-17T14:33:09.023Z,18.3
2023-02-17T14:43:11.973Z,18.5
2023-02-17T14:53:20.737Z,18.3
2023-02-17T15:03:22.778Z,18.3
2023-02-17T15:13:31.100Z,18.5
2023-02-17T15:23:39.291Z,18.5
2023-02-17T15:33:47.728Z,18.3
2023-02-17T15:43:56.601Z,18.4
2023-02-17T15:54:06.381Z,18
2023-02-17T16:04:15.334Z,17.7
2023-02-17T16:14:27.817Z,17.4
2023-02-17T16:24:25.720Z,17.6
2023-02-17T16:34:34.311Z,17.7
2023-02-17T16:44:34.696Z,17.6
2023-02-17T16:54:43.026Z,17.6
2023-02-17T17:04:51.081Z,17.4
2023-02-17T17:14:59.326Z,17.2
2023-02-17T17:25:10.602Z,16.8
2023-02-17T17:35:13.944Z,16.6
2023-02-17T17:45:23.507Z,16.5
2023-02-17T17:55:31.700Z,16.1
2023-02-17T18:05:40.228Z,15.8
2023-02-17T18:15:53.169Z,15.7
2023-02-17T18:25:55.530Z,15.2
2023-02-17T18:35:56.138Z,15
2023-02-17T18:46:12.044Z,15.1
2023-02-17T18:56:02.518Z,15.2
2023-02-17T19:06:12.293Z,15
2023-02-17T19:16:15.995Z,14.7
2023-02-17T19:26:26.590Z,14.7
2023-02-17T19:36:32.445Z,14.4
2023-02-17T19:47:28.721Z,14.2
2023-02-17T19:59:52.637Z,14.4
2023-02-17T20:16:58.561Z,14
2023-02-17T20:27:09.802Z,13.7
2023-02-17T20:37:17.051Z,13.7
2023-02-17T20:47:25.066Z,13.4
2023-02-17T20:57:26.823Z,13.2
2023-02-17T21:07:31.245Z,13.1
2023-02-17T21:17:40.446Z,13.2
2023-02-17T21:27:47.600Z,12.4
2023-02-17T21:37:54.480Z,12.7
2023-02-17T21:47:53.475Z,12
2023-02-17T21:58:06.506Z,11.8
2023-02-17T22:08:11.822Z,11.7
2023-02-17T22:18:17.727Z,11.7
2023-02-17T22:28:23.498Z,11.3
2023-02-17T22:38:22.706Z,11.1
2023-02-17T22:48:23.608Z,11
2023-02-17T22:58:35.173Z,10.8
2023-02-17T23:08:35.617Z,10.7
2023-02-17T23:18:45.573Z,10.5
2023-02-17T23:28:55.153Z,10.2
2023-02-17T23:38:55.428Z,10.1
2023-02-17T23:49:04.821Z,10.3
2023-02-17T23:59:15.517Z,10.2
